createdAt,value
2018-12-07T00:01:36.147Z,44.47
2018-12-07T00:04:05.185Z,44.57
2018-12-07T00:06:33.972Z,46.13
2018-12-07T00:09:03.885Z,46.47
2018-12-07T00:11:32.702Z,46.23
2018-12-07T00:14:01.640Z,47.83
2018-12-07T00:16:30.632Z,43.97
2018-12-07T00:18:59.647Z,45.47
2018-12-07T00:21:28.639Z,40.77
2018-12-07T00:23:57.528Z,39.67
2018-12-07T00:26:26.363Z,45.70
2018-12-07T00:28:55.233Z,45.73
2018-12-07T00:31:24.034Z,44.13
2018-12-07T00:33:53.110Z,45.57
2018-12-07T00:36:21.862Z,41.37
2018-12-07T00:38:50.859Z,39.57
2018-12-07T00:41:19.644Z,43.67
2018-12-07T00:43:48.559Z,41.47
2018-12-07T00:46:17.416Z,40.90
2018-12-07T00:48:46.464Z,53.63
2018-12-07T00:51:15.727Z,57.77
2018-12-07T00:53:44.848Z,43.43
2018-12-07T00:56:14.059Z,43.80
2018-12-07T00:58:42.952Z,44.70
2018-12-07T01:01:12.141Z,45.50
2018-12-07T01:03:41.226Z,45.47
2018-12-07T01:06:10.566Z,38.47
2018-12-07T01:08:39.767Z,37.83
2018-12-07T01:11:08.753Z,43.37
2018-12-07T01:13:37.927Z,38.87
2018-12-07T01:16:07.207Z,41.20
2018-12-07T01:18:36.281Z,37.47
2018-12-07T01:21:05.209Z,38.83
2018-12-07T01:23:34.143Z,41.97
2018-12-07T01:26:03.285Z,37.33
2018-12-07T01:28:32.096Z,37.00
2018-12-07T01:31:01.537Z,37.80
2018-12-07T01:33:30.804Z,38.17
2018-12-07T01:35:59.751Z,39.77
2018-12-07T01:38:28.854Z,44.53
2018-12-07T01:40:58.183Z,55.93
2018-12-07T01:43:27.262Z,71.27
2018-12-07T01:45:56.451Z,62.67
2018-12-07T01:48:25.371Z,132.73
2018-12-07T01:50:54.600Z,150.47
2018-12-07T01:53:23.707Z,151.33
2018-12-07T01:55:52.683Z,175.47
2018-12-07T01:58:21.784Z,121.63
2018-12-07T02:00:50.814Z,55.23
2018-12-07T02:03:20.058Z,50.97
2018-12-07T02:05:49.207Z,49.70
2018-12-07T02:08:18.392Z,36.13
2018-12-07T02:10:47.468Z,37.73
2018-12-07T02:13:16.760Z,38.27
2018-12-07T02:15:46.108Z,36.63
2018-12-07T02:18:15.198Z,38.60
2018-12-07T02:20:43.952Z,36.77
2018-12-07T02:23:13.222Z,34.83
2018-12-07T02:25:42.375Z,33.43
2018-12-07T02:28:11.619Z,35.23
2018-12-07T02:30:40.765Z,36.60
2018-12-07T02:33:09.860Z,38.57
2018-12-07T02:35:39.042Z,35.10
2018-12-07T02:38:08.364Z,31.80
2018-12-07T02:40:37.608Z,40.77
2018-12-07T02:43:06.826Z,41.37
2018-12-07T02:45:35.955Z,39.33
2018-12-07T02:48:04.864Z,36.93
2018-12-07T02:50:34.115Z,36.50
2018-12-07T02:53:03.214Z,35.60
2018-12-07T02:55:32.383Z,43.57
2018-12-07T02:58:01.535Z,44.20
2018-12-07T03:00:30.695Z,42.40
2018-12-07T03:02:59.768Z,41.00
2018-12-07T03:05:28.624Z,33.10
2018-12-07T03:07:57.775Z,28.63
2018-12-07T03:10:26.904Z,29.40
2018-12-07T03:12:55.809Z,35.67
2018-12-07T03:15:25.027Z,42.27
2018-12-07T03:17:54.029Z,35.23
2018-12-07T03:20:23.320Z,31.97
2018-12-07T03:22:52.399Z,35.97
2018-12-07T03:25:21.627Z,34.40
2018-12-07T03:27:50.911Z,37.73
2018-12-07T03:30:20.156Z,32.50
2018-12-07T03:32:49.433Z,30.10
2018-12-07T03:35:18.726Z,30.70
2018-12-07T03:37:47.553Z,31.87
2018-12-07T03:40:16.484Z,32.27
2018-12-07T03:42:45.646Z,33.77
2018-12-07T03:45:14.742Z,32.93
2018-12-07T03:47:43.939Z,28.93
2018-12-07T03:50:12.795Z,33.13
2018-12-07T03:52:41.991Z,33.63
2018-12-07T03:55:11.142Z,38.57
2018-12-07T03:57:40.328Z,40.70
2018-12-07T04:00:09.773Z,30.30
2018-12-07T04:02:39.028Z,32.17
2018-12-07T04:05:08.180Z,39.33
2018-12-07T04:07:37.377Z,37.70
2018-12-07T04:10:06.676Z,35.70
2018-12-07T04:12:35.773Z,34.70
2018-12-07T04:15:05.374Z,36.30
2018-12-07T04:17:34.381Z,37.67
2018-12-07T04:20:03.764Z,41.43
2018-12-07T04:22:32.764Z,39.03
2018-12-07T04:25:01.728Z,40.27
2018-12-07T04:27:30.663Z,38.80
2018-12-07T04:30:10.482Z,43.80
2018-12-07T04:32:39.538Z,44.20
2018-12-07T04:35:08.380Z,45.57
2018-12-07T04:37:37.268Z,84.10
2018-12-07T04:40:06.332Z,49.03
2018-12-07T04:42:35.275Z,65.43
2018-12-07T04:45:04.520Z,58.40
2018-12-07T04:47:33.418Z,43.43
2018-12-07T04:50:03.281Z,45.20
2018-12-07T04:52:32.243Z,55.70
2018-12-07T04:55:01.160Z,46.57
2018-12-07T04:57:30.228Z,42.83
2018-12-07T04:59:59.108Z,41.57
2018-12-07T05:02:27.948Z,43.03
2018-12-07T05:04:56.820Z,42.37
2018-12-07T05:07:25.696Z,42.80
2018-12-07T05:09:54.658Z,78.23
2018-12-07T05:12:23.549Z,79.17
2018-12-07T05:14:52.396Z,111.40
2018-12-07T05:17:21.657Z,115.90
2018-12-07T05:19:50.728Z,181.20
2018-12-07T05:22:19.909Z,148.53
2018-12-07T05:24:49.126Z,114.03
2018-12-07T05:27:18.370Z,65.57
2018-12-07T05:29:47.480Z,69.00
2018-12-07T05:32:16.678Z,62.97
2018-12-07T05:34:45.728Z,61.77
2018-12-07T05:37:14.751Z,55.53
2018-12-07T05:39:43.610Z,40.63
2018-12-07T05:42:12.478Z,32.93
2018-12-07T05:44:41.803Z,34.53
2018-12-07T05:47:10.883Z,40.87
2018-12-07T05:49:39.771Z,38.60
2018-12-07T05:52:08.557Z,45.87
2018-12-07T05:54:37.664Z,48.60
2018-12-07T05:57:06.841Z,88.17
2018-12-07T05:59:36.119Z,177.83
2018-12-07T06:02:05.238Z,122.80
2018-12-07T06:04:34.123Z,141.37
2018-12-07T06:07:03.319Z,111.57
2018-12-07T06:09:33.056Z,51.33
2018-12-07T06:12:02.152Z,245.53
2018-12-07T06:14:31.369Z,144.53
2018-12-07T06:17:00.376Z,46.57
2018-12-07T06:19:29.253Z,48.47
2018-12-07T06:21:58.200Z,49.27
2018-12-07T06:24:26.986Z,42.93
2018-12-07T06:26:55.808Z,37.77
2018-12-07T06:29:24.781Z,49.00
2018-12-07T06:31:53.776Z,39.53
2018-12-07T06:34:23.064Z,37.83
2018-12-07T06:36:52.271Z,38.50
2018-12-07T06:39:21.164Z,48.33
2018-12-07T06:41:50.509Z,52.13
2018-12-07T06:44:19.265Z,43.07
2018-12-07T06:46:48.188Z,35.93
2018-12-07T06:49:17.132Z,36.33
2018-12-07T06:51:46.160Z,37.03
2018-12-07T06:54:15.014Z,39.50
2018-12-07T06:56:43.954Z,36.93
2018-12-07T06:59:12.818Z,44.47
2018-12-07T07:01:42.080Z,240.80
2018-12-07T07:04:10.987Z,102.23
2018-12-07T07:06:40.138Z,84.53
2018-12-07T07:09:09.618Z,69.73
2018-12-07T07:11:38.925Z,57.60
2018-12-07T07:14:07.980Z,50.90
2018-12-07T07:16:37.162Z,37.57
2018-12-07T07:19:06.405Z,37.20
2018-12-07T07:21:35.552Z,29.47
2018-12-07T07:24:04.792Z,35.77
2018-12-07T07:26:34.038Z,50.33
2018-12-07T07:29:03.190Z,40.03
2018-12-07T07:31:32.096Z,43.90
2018-12-07T07:34:01.143Z,85.20
2018-12-07T07:36:30.032Z,41.93
2018-12-07T07:38:58.922Z,40.40
2018-12-07T07:41:27.892Z,46.50
2018-12-07T07:43:56.823Z,52.07
2018-12-07T07:46:25.795Z,155.20
2018-12-07T07:48:54.686Z,192.87
2018-12-07T07:51:23.677Z,86.67
2018-12-07T07:53:52.497Z,54.37
2018-12-07T07:56:21.562Z,41.40
2018-12-07T07:58:50.484Z,36.20
2018-12-07T08:01:19.401Z,37.37
2018-12-07T08:03:48.269Z,31.47
2018-12-07T08:06:17.223Z,35.17
2018-12-07T08:08:46.195Z,57.77
2018-12-07T08:11:15.083Z,54.43
2018-12-07T08:13:43.890Z,62.47
2018-12-07T08:16:12.987Z,82.80
2018-12-07T08:18:41.899Z,70.13
2018-12-07T08:21:10.867Z,35.13
2018-12-07T08:23:39.724Z,29.87
2018-12-07T08:26:08.749Z,52.60
2018-12-07T08:28:37.585Z,41.97
2018-12-07T08:31:06.531Z,40.00
2018-12-07T08:33:35.522Z,49.47
2018-12-07T08:36:04.456Z,113.13
2018-12-07T08:38:33.404Z,48.73
2018-12-07T08:41:02.319Z,42.37
2018-12-07T08:43:31.182Z,54.13
2018-12-07T08:46:00.103Z,61.07
2018-12-07T08:48:29.066Z,45.13
2018-12-07T08:50:57.984Z,40.07
2018-12-07T08:53:26.862Z,59.70
2018-12-07T08:55:55.722Z,81.30
2018-12-07T08:58:24.520Z,82.67
2018-12-07T09:00:53.411Z,69.30
2018-12-07T09:03:22.239Z,43.73
2018-12-07T09:05:51.232Z,35.37
2018-12-07T09:08:20.132Z,59.67
2018-12-07T09:10:49.116Z,33.73
2018-12-07T09:13:17.892Z,34.50
2018-12-07T09:15:46.710Z,33.23
2018-12-07T09:18:15.515Z,36.57
2018-12-07T09:20:44.368Z,32.90
2018-12-07T09:23:13.318Z,37.27
2018-12-07T09:25:42.206Z,34.63
2018-12-07T09:28:11.069Z,32.70
2018-12-07T09:30:41.226Z,36.10
2018-12-07T09:33:10.317Z,33.00
2018-12-07T09:35:39.407Z,36.63
2018-12-07T09:38:13.185Z,33.13
2018-12-07T09:40:39.234Z,35.27
2018-12-07T09:43:08.082Z,37.20
2018-12-07T09:45:36.860Z,45.00
2018-12-07T09:48:05.719Z,33.87
2018-12-07T09:50:34.689Z,38.13
2018-12-07T09:53:03.552Z,31.77
2018-12-07T09:55:32.379Z,37.57
2018-12-07T09:58:01.200Z,47.33
2018-12-07T10:00:29.981Z,38.37
2018-12-07T10:02:58.784Z,31.83
2018-12-07T10:05:27.721Z,34.80
2018-12-07T10:07:56.614Z,28.60
2018-12-07T10:10:25.579Z,29.80
2018-12-07T10:12:54.494Z,29.77
2018-12-07T10:15:23.387Z,35.80
2018-12-07T10:17:52.220Z,36.93
2018-12-07T10:20:21.259Z,27.47
2018-12-07T10:22:50.159Z,29.00
2018-12-07T10:25:19.117Z,23.07
2018-12-07T10:27:48.044Z,25.93
2018-12-07T10:30:16.851Z,27.40
2018-12-07T10:32:45.720Z,54.73
2018-12-07T10:35:14.606Z,37.43
2018-12-07T10:37:43.700Z,33.87
2018-12-07T10:40:12.585Z,27.57
2018-12-07T10:42:41.583Z,26.80
2018-12-07T10:45:10.561Z,31.40
2018-12-07T10:47:39.568Z,51.53
2018-12-07T10:50:08.495Z,32.87
2018-12-07T10:52:37.449Z,31.70
2018-12-07T10:55:08.068Z,25.77
2018-12-07T10:57:37.416Z,25.83
2018-12-07T11:00:09.064Z,30.20
2018-12-07T11:02:43.323Z,25.90
2018-12-07T11:05:17.348Z,25.23
2018-12-07T11:07:51.551Z,22.07
2018-12-07T11:10:25.819Z,22.93
2018-12-07T11:12:59.936Z,22.30
2018-12-07T11:15:34.118Z,24.33
2018-12-07T11:18:08.293Z,24.17
2018-12-07T11:20:42.207Z,21.00
2018-12-07T11:23:16.454Z,21.83
2018-12-07T11:25:50.477Z,20.10
2018-12-07T11:28:24.412Z,19.40
2018-12-07T11:30:58.668Z,20.40
2018-12-07T11:33:31.980Z,22.97
2018-12-07T11:50:36.073Z,27.80
2018-12-07T11:53:05.214Z,27.50
2018-12-07T11:55:34.381Z,26.67
2018-12-07T11:58:03.570Z,33.73
2018-12-07T12:00:32.467Z,29.43
2018-12-07T12:03:01.564Z,28.47
2018-12-07T12:05:30.521Z,27.17
2018-12-07T12:07:59.585Z,27.10
2018-12-07T12:10:28.807Z,26.57
2018-12-07T12:12:57.956Z,30.93
2018-12-07T12:15:27.162Z,29.43
2018-12-07T12:17:55.923Z,28.73
2018-12-07T12:20:25.000Z,30.43
2018-12-07T12:22:54.150Z,31.30
2018-12-07T12:25:23.196Z,34.57
2018-12-07T12:27:52.234Z,29.30
2018-12-07T12:30:21.420Z,45.27
2018-12-07T12:32:50.240Z,41.50
2018-12-07T12:35:19.460Z,53.80
2018-12-07T12:37:48.516Z,40.20
2018-12-07T12:40:17.466Z,37.20
2018-12-07T12:42:46.591Z,35.30
2018-12-07T12:45:15.704Z,42.10
2018-12-07T12:47:44.879Z,38.07
2018-12-07T12:50:19.156Z,38.80
2018-12-07T12:52:48.156Z,34.80
2018-12-07T12:55:17.054Z,33.83
2018-12-07T12:57:45.895Z,36.00
2018-12-07T13:00:14.934Z,35.30
2018-12-07T13:02:43.776Z,39.83
2018-12-07T13:05:12.639Z,37.30
2018-12-07T13:07:41.632Z,46.70
2018-12-07T13:10:10.590Z,49.63
2018-12-07T13:12:39.400Z,51.93
2018-12-07T13:15:08.563Z,76.93
2018-12-07T13:17:37.471Z,115.17
2018-12-07T13:20:07.589Z,85.57
2018-12-07T13:22:36.563Z,71.20
2018-12-07T13:25:06.091Z,67.17
2018-12-07T13:27:34.920Z,57.97
2018-12-07T13:30:04.161Z,60.63
2018-12-07T13:32:33.045Z,58.43
2018-12-07T13:35:01.851Z,65.03
2018-12-07T13:37:30.828Z,49.97
2018-12-07T13:39:59.819Z,52.57
2018-12-07T13:42:28.949Z,60.77
2018-12-07T13:44:58.064Z,55.97
2018-12-07T13:47:27.326Z,56.87
2018-12-07T13:50:01.839Z,59.90
2018-12-07T13:52:31.073Z,55.27
2018-12-07T13:55:00.386Z,55.00
2018-12-07T13:57:29.830Z,48.17
2018-12-07T13:59:58.986Z,59.37
2018-12-07T14:02:28.216Z,56.87
2018-12-07T14:04:57.574Z,55.97
2018-12-07T14:07:26.727Z,51.50
2018-12-07T14:09:56.024Z,56.20
2018-12-07T14:12:25.282Z,50.53
2018-12-07T14:14:54.712Z,64.67
2018-12-07T14:17:23.924Z,71.23
2018-12-07T14:19:53.394Z,77.60
2018-12-07T14:22:22.658Z,54.07
2018-12-07T14:24:52.023Z,51.93
2018-12-07T14:27:21.311Z,52.83
2018-12-07T14:29:50.590Z,50.83
2018-12-07T14:32:19.942Z,75.53
2018-12-07T14:34:49.541Z,102.03
2018-12-07T14:37:18.772Z,106.10
2018-12-07T14:39:48.130Z,80.53
2018-12-07T14:42:17.374Z,116.30
2018-12-07T14:44:46.512Z,137.97
2018-12-07T14:47:15.713Z,135.27
2018-12-07T14:49:45.008Z,126.73
2018-12-07T14:52:14.341Z,97.13
2018-12-07T14:54:43.739Z,107.00
2018-12-07T14:57:13.039Z,130.47
2018-12-07T14:59:42.192Z,86.57
2018-12-07T15:02:11.429Z,70.73
2018-12-07T15:04:40.741Z,72.27
2018-12-07T15:07:09.897Z,73.00
2018-12-07T15:09:39.293Z,63.20
2018-12-07T15:12:08.442Z,61.27
2018-12-07T15:14:37.652Z,53.60
2018-12-07T15:17:06.669Z,117.67
2018-12-07T15:19:36.019Z,124.27
2018-12-07T15:22:04.978Z,110.63
2018-12-07T15:24:34.285Z,87.87
2018-12-07T15:27:03.690Z,104.97
2018-12-07T15:29:33.198Z,111.60
2018-12-07T15:32:02.587Z,86.47
2018-12-07T15:34:31.930Z,80.63
2018-12-07T15:37:01.570Z,89.70
2018-12-07T15:39:31.006Z,167.73
2018-12-07T15:42:00.356Z,178.80
2018-12-07T15:44:29.254Z,230.80
2018-12-07T15:46:58.588Z,190.23
2018-12-07T15:49:28.180Z,138.90
2018-12-07T15:51:57.177Z,94.23
2018-12-07T15:54:26.288Z,85.77
2018-12-07T15:56:55.276Z,78.30
2018-12-07T15:59:24.305Z,72.00
2018-12-07T16:01:53.343Z,67.47
2018-12-07T16:04:22.629Z,68.40
2018-12-07T16:06:51.815Z,166.30
2018-12-07T16:09:20.834Z,148.07
2018-12-07T16:11:49.802Z,96.43
2018-12-07T16:14:18.809Z,118.83
2018-12-07T16:16:47.737Z,116.47
2018-12-07T16:19:16.752Z,114.87
2018-12-07T16:21:46.116Z,95.63
2018-12-07T16:24:15.312Z,88.10
2018-12-07T16:26:44.746Z,80.30
2018-12-07T16:29:13.914Z,68.90
2018-12-07T16:31:43.340Z,74.17
2018-12-07T16:34:12.591Z,95.07
2018-12-07T16:36:41.809Z,83.03
2018-12-07T16:39:10.939Z,87.33
2018-12-07T16:41:40.149Z,117.20
2018-12-07T16:44:09.522Z,91.73
2018-12-07T16:46:38.617Z,89.47
2018-12-07T16:49:07.805Z,109.77
2018-12-07T16:51:37.059Z,119.37
2018-12-07T16:54:06.449Z,101.77
2018-12-07T16:56:35.607Z,93.67
2018-12-07T16:59:04.903Z,86.40
2018-12-07T17:01:34.016Z,137.70
2018-12-07T17:04:03.227Z,123.00
2018-12-07T17:06:32.681Z,112.93
2018-12-07T17:09:02.050Z,99.87
2018-12-07T17:11:32.396Z,122.00
2018-12-07T17:14:01.713Z,153.33
2018-12-07T17:16:30.869Z,143.70
2018-12-07T17:18:59.950Z,120.43
2018-12-07T17:21:30.123Z,92.97
2018-12-07T17:23:59.212Z,80.27
2018-12-07T17:26:28.461Z,75.87
2018-12-07T17:28:57.710Z,69.40
2018-12-07T17:31:26.904Z,79.23
2018-12-07T17:33:56.268Z,80.13
2018-12-07T17:36:25.780Z,76.90
2018-12-07T17:38:55.210Z,70.03
2018-12-07T17:41:25.251Z,53.00
2018-12-07T17:43:54.283Z,47.87
2018-12-07T17:46:24.986Z,56.20
2018-12-07T17:48:54.079Z,54.67
2018-12-07T17:51:25.250Z,53.93
2018-12-07T17:53:54.571Z,49.83
2018-12-07T17:56:24.003Z,63.20
2018-12-07T17:58:54.657Z,66.40
2018-12-07T18:01:23.654Z,143.07
2018-12-07T18:03:52.528Z,118.97
2018-12-07T18:06:21.693Z,116.73
2018-12-07T18:08:51.097Z,126.17
2018-12-07T18:11:20.153Z,86.83
2018-12-07T18:13:49.339Z,62.60
2018-12-07T18:16:18.469Z,66.37
2018-12-07T18:18:47.506Z,88.77
2018-12-07T18:21:16.724Z,147.57
2018-12-07T18:23:45.680Z,91.23
2018-12-07T18:26:14.629Z,76.90
2018-12-07T18:28:43.837Z,70.73
2018-12-07T18:31:12.887Z,66.23
2018-12-07T18:33:41.934Z,66.67
2018-12-07T18:36:11.115Z,69.63
2018-12-07T18:38:40.558Z,78.80
2018-12-07T18:41:09.690Z,116.27
2018-12-07T18:43:38.617Z,113.33
2018-12-07T18:46:08.011Z,120.43
2018-12-07T18:48:37.347Z,115.10
2018-12-07T18:51:07.066Z,126.40
2018-12-07T18:53:36.407Z,114.63
2018-12-07T18:56:05.765Z,111.17
2018-12-07T18:58:35.129Z,146.03
2018-12-07T19:01:04.679Z,124.93
2018-12-07T19:03:33.926Z,120.43
2018-12-07T19:06:03.373Z,99.63
2018-12-07T19:08:32.809Z,211.27
2018-12-07T19:11:02.384Z,115.10
2018-12-07T19:13:31.645Z,149.30
2018-12-07T19:16:01.117Z,383.03
2018-12-07T19:18:30.225Z,120.93
2018-12-07T19:20:59.427Z,148.43
2018-12-07T19:23:28.511Z,222.13
2018-12-07T19:25:57.667Z,112.27
2018-12-07T19:28:26.736Z,57.47
2018-12-07T19:30:56.374Z,55.50
2018-12-07T19:33:25.853Z,60.53
2018-12-07T19:35:55.386Z,76.53
2018-12-07T19:38:24.694Z,114.90
2018-12-07T19:40:54.260Z,98.50
2018-12-07T19:43:23.796Z,143.93
2018-12-07T19:45:53.313Z,114.47
2018-12-07T19:48:22.660Z,84.83
2018-12-07T19:50:51.876Z,82.27
2018-12-07T19:53:21.485Z,106.83
2018-12-07T19:55:51.059Z,91.87
2018-12-07T19:58:19.926Z,178.87
2018-12-07T20:00:48.871Z,96.07
2018-12-07T20:03:17.977Z,76.50
2018-12-07T20:05:47.031Z,63.80
2018-12-07T20:08:16.231Z,58.97
2018-12-07T20:10:45.376Z,65.60
2018-12-07T20:13:14.773Z,61.13
2018-12-07T20:15:44.194Z,53.83
2018-12-07T20:18:13.588Z,46.17
2018-12-07T20:20:42.889Z,51.20
2018-12-07T20:23:12.093Z,68.50
2018-12-07T20:25:41.234Z,68.10
2018-12-07T20:28:10.776Z,88.40
2018-12-07T20:30:40.420Z,81.80
2018-12-07T20:33:09.363Z,60.60
2018-12-07T20:35:38.570Z,52.43
2018-12-07T20:38:07.712Z,106.73
2018-12-07T20:40:36.625Z,99.37
2018-12-07T20:43:05.743Z,79.03
2018-12-07T20:45:34.962Z,74.90
2018-12-07T20:48:04.090Z,53.47
2018-12-07T20:50:33.616Z,43.47
2018-12-07T20:53:02.946Z,42.87
2018-12-07T20:55:32.345Z,42.60
2018-12-07T20:58:03.638Z,38.93
2018-12-07T21:00:32.660Z,42.40
2018-12-07T21:03:01.704Z,51.37
2018-12-07T21:07:51.473Z,56.20
2018-12-07T21:10:41.207Z,73.17
2018-12-07T21:17:19.157Z,71.70
2018-12-07T21:19:53.312Z,85.63
2018-12-07T21:22:22.691Z,64.57
2018-12-07T21:24:52.039Z,89.17
2018-12-07T21:27:21.202Z,90.27
2018-12-07T21:30:59.620Z,89.53
2018-12-07T21:33:53.150Z,56.93
2018-12-07T21:36:35.749Z,66.53
2018-12-07T21:39:09.590Z,68.03
2018-12-07T21:41:38.438Z,96.23
2018-12-07T21:44:07.511Z,58.03
2018-12-07T21:46:36.830Z,56.10
2018-12-07T21:49:05.897Z,54.97
2018-12-07T21:51:49.775Z,64.03
2018-12-07T21:54:18.910Z,93.87
2018-12-07T21:56:48.185Z,100.63
2018-12-07T21:59:17.530Z,77.63
2018-12-07T22:01:46.662Z,67.53
2018-12-07T22:04:15.877Z,94.67
2018-12-07T22:06:44.802Z,70.63
2018-12-07T22:09:14.243Z,62.17
2018-12-07T22:11:43.529Z,63.87
2018-12-07T22:14:12.455Z,71.33
2018-12-07T22:16:41.282Z,127.03
2018-12-07T22:19:10.329Z,98.07
2018-12-07T22:21:39.700Z,75.90
2018-12-07T22:24:08.966Z,72.73
2018-12-07T22:26:37.991Z,63.40
2018-12-07T22:29:07.209Z,88.20
2018-12-07T22:31:36.490Z,62.77
2018-12-07T22:34:05.701Z,59.37
2018-12-07T22:36:35.055Z,53.50
2018-12-07T22:39:05.273Z,57.23
2018-12-07T22:41:34.373Z,52.80
2018-12-07T22:44:03.765Z,57.37
2018-12-07T22:46:32.985Z,54.80
2018-12-07T22:49:02.224Z,58.57
2018-12-07T22:51:31.501Z,60.80
2018-12-07T22:54:00.569Z,67.53
2018-12-07T22:56:29.417Z,77.30
2018-12-07T22:58:58.246Z,75.57
2018-12-07T23:01:27.648Z,65.73
2018-12-07T23:03:56.656Z,149.37
2018-12-07T23:06:25.612Z,61.90
2018-12-07T23:08:54.364Z,58.87
2018-12-07T23:11:23.180Z,69.83
2018-12-07T23:13:52.084Z,65.60
2018-12-07T23:16:20.964Z,53.43
2018-12-07T23:18:49.908Z,49.67
2018-12-07T23:21:18.743Z,45.93
2018-12-07T23:23:47.689Z,41.73
2018-12-07T23:26:16.551Z,43.33
2018-12-07T23:28:45.360Z,44.53
2018-12-07T23:31:14.196Z,45.80
2018-12-07T23:33:43.114Z,45.97
2018-12-07T23:36:11.900Z,44.17
2018-12-07T23:38:40.735Z,46.33
2018-12-07T23:41:09.607Z,55.47
2018-12-07T23:43:38.391Z,56.97
2018-12-07T23:46:07.358Z,52.27
2018-12-07T23:48:36.317Z,57.67
2018-12-07T23:51:05.318Z,58.50
2018-12-07T23:53:34.312Z,62.53
2018-12-07T23:56:03.209Z,61.73
2018-12-07T23:58:32.024Z,63.67
